Time;durP1;ratioP1;P1;durP2;ratioP2;P2;SDS_P1;SDS_P2;PMS_P1;PMS_P2;Temp;Humidity;BMP_temperature;BMP_pressure;BME280_temperature;BME280_humidity;BME280_pressure;Samples;Min_cycle;Max_cycle;Signal;HPM_P1;HPM_P2
2023/01/30 00:01:26;;;;;;;39.20;21.10;;;;;;;;;;4954516;29;20050;-66
2023/01/30 00:03:52;;;;;;;36.88;21.20;;;;;;;;;;4953866;29;20457;-66
2023/01/30 00:06:18;;;;;;;43.15;21.17;;;;;;;;;;4954473;29;20414;-66
2023/01/30 00:08:45;;;;;;;38.85;21.23;;;;;;;;;;4957865;28;20117;-66
2023/01/30 00:11:11;;;;;;;35.92;20.88;;;;;;;;;;4973417;28;20047;-66
2023/01/30 00:13:38;;;;;;;41.05;20.38;;;;;;;;;;4973140;28;20042;-66
2023/01/30 00:16:04;;;;;;;39.38;20.45;;;;;;;;;;4956060;28;20055;-66
2023/01/30 00:18:30;;;;;;;36.25;20.15;;;;;;;;;;4973110;28;20458;-66
2023/01/30 00:20:57;;;;;;;36.60;20.10;;;;;;;;;;4973282;28;20490;-66
2023/01/30 00:23:24;;;;;;;38.28;20.17;;;;;;;;;;4973277;28;20046;-66
2023/01/30 00:25:50;;;;;;;35.33;19.13;;;;;;;;;;4964907;28;20050;-66
2023/01/30 00:28:16;;;;;;;38.55;20.98;;;;;;;;;;4954121;29;20662;-66
2023/01/30 00:30:42;;;;;;;37.00;19.92;;;;;;;;;;4954081;29;20414;-66
2023/01/30 00:33:09;;;;;;;36.38;19.52;;;;;;;;;;4953601;29;20051;-66
2023/01/30 00:35:35;;;;;;;36.50;20.02;;;;;;;;;;4953469;29;20578;-66
2023/01/30 00:38:01;;;;;;;32.55;18.85;;;;;;;;;;4954063;29;20043;-66
2023/01/30 00:40:28;;;;;;;35.53;18.85;;;;;;;;;;4953464;29;20039;-66
2023/01/30 00:48:25;;;;;;;32.78;18.45;;;;;;;;;;4953160;29;20050;-66
2023/01/30 00:50:51;;;;;;;37.22;17.98;;;;;;;;;;4953609;29;20043;-66
2023/01/30 00:53:17;;;;;;;33.45;18.30;;;;;;;;;;4936342;29;20542;-66
2023/01/30 00:55:44;;;;;;;32.85;15.05;;;;;;;;;;4952982;29;20505;-66
2023/01/30 00:58:12;;;;;;;32.70;15.20;;;;;;;;;;4953157;29;20065;-66
2023/01/30 01:00:38;;;;;;;28.63;15.13;;;;;;;;;;4953503;29;20039;-66
2023/01/30 01:03:04;;;;;;;26.75;13.43;;;;;;;;;;4953091;29;20094;-66
2023/01/30 01:05:31;;;;;;;31.17;12.88;;;;;;;;;;4952860;28;20043;-66
2023/01/30 01:07:57;;;;;;;25.00;11.18;;;;;;;;;;4953321;29;20090;-66
2023/01/30 01:10:23;;;;;;;30.25;12.07;;;;;;;;;;4969574;28;20145;-66
2023/01/30 01:12:53;;;;;;;25.08;10.98;;;;;;;;;;4954906;28;20116;-66
2023/01/30 01:15:19;;;;;;;27.58;10.55;;;;;;;;;;4972327;28;20896;-66
2023/01/30 01:17:45;;;;;;;27.90;11.27;;;;;;;;;;4972296;28;20045;-66
2023/01/30 01:20:12;;;;;;;24.83;11.48;;;;;;;;;;4972249;28;20552;-66
2023/01/30 01:22:38;;;;;;;22.13;11.50;;;;;;;;;;4972473;28;20035;-66
2023/01/30 01:25:05;;;;;;;25.63;11.52;;;;;;;;;;4970124;28;20113;-66
2023/01/30 01:27:31;;;;;;;24.13;10.18;;;;;;;;;;4952988;29;20481;-66
2023/01/30 01:29:57;;;;;;;25.17;10.82;;;;;;;;;;4952866;29;20047;-66
2023/01/30 01:32:23;;;;;;;27.27;11.70;;;;;;;;;;4952629;29;20046;-66
2023/01/30 01:34:49;;;;;;;29.30;11.77;;;;;;;;;;4952464;29;20161;-66
2023/01/30 01:37:15;;;;;;;25.05;11.05;;;;;;;;;;4952962;29;20043;-66
2023/01/30 01:42:28;;;;;;;24.30;10.52;;;;;;;;;;4952773;29;20417;-66
2023/01/30 01:45:22;;;;;;;23.05;10.65;;;;;;;;;;4952236;29;20049;-66
2023/01/30 01:47:51;;;;;;;20.02;9.52;;;;;;;;;;4948693;29;20047;-66
2023/01/30 01:50:26;;;;;;;21.50;9.40;;;;;;;;;;4952599;29;20371;-66
2023/01/30 01:52:53;;;;;;;17.75;8.63;;;;;;;;;;4952602;29;20058;-66
2023/01/30 01:55:20;;;;;;;21.85;9.13;;;;;;;;;;4952165;29;20459;-66
2023/01/30 01:57:55;;;;;;;20.55;8.57;;;;;;;;;;4952327;29;20702;-66
2023/01/30 02:00:22;;;;;;;23.55;8.90;;;;;;;;;;4935151;29;20066;-66
2023/01/30 02:02:54;;;;;;;20.02;8.35;;;;;;;;;;4952330;29;20516;-66
2023/01/30 02:05:20;;;;;;;16.83;7.47;;;;;;;;;;4952489;29;20407;-66
2023/01/30 02:08:04;;;;;;;16.60;7.18;;;;;;;;;;4952330;29;20061;-66
2023/01/30 02:10:33;;;;;;;14.13;7.38;;;;;;;;;;4969471;28;20039;-66
2023/01/30 02:12:59;;;;;;;12.57;6.18;;;;;;;;;;4971378;28;20039;-66
2023/01/30 02:15:25;;;;;;;18.75;6.30;;;;;;;;;;4971430;28;20039;-66
2023/01/30 02:17:51;;;;;;;12.65;5.75;;;;;;;;;;4971457;28;20482;-66
2023/01/30 02:20:46;;;;;;;16.38;6.78;;;;;;;;;;4975164;28;20051;-66
2023/01/30 02:23:30;;;;;;;15.85;6.45;;;;;;;;;;4975333;28;20047;-66
2023/01/30 02:26:15;;;;;;;12.68;5.93;;;;;;;;;;4966584;28;20043;-66
2023/01/30 02:29:00;;;;;;;15.68;5.40;;;;;;;;;;4956110;29;20097;-66
2023/01/30 02:31:41;;;;;;;10.95;5.57;;;;;;;;;;4956245;29;20051;-66
2023/01/30 02:34:14;;;;;;;14.00;5.70;;;;;;;;;;4956013;29;20036;-66
2023/01/30 02:36:40;;;;;;;12.63;5.20;;;;;;;;;;4955921;29;20055;-66
2023/01/30 02:39:11;;;;;;;11.75;5.20;;;;;;;;;;4955636;29;20542;-66
2023/01/30 02:41:51;;;;;;;13.48;5.05;;;;;;;;;;4938835;29;20819;-66
2023/01/30 02:44:22;;;;;;;18.90;5.35;;;;;;;;;;4955668;29;20494;-66
2023/01/30 02:46:48;;;;;;;22.95;5.85;;;;;;;;;;4955536;29;20479;-66
2023/01/30 02:49:20;;;;;;;15.20;5.35;;;;;;;;;;4955614;29;20035;-66
2023/01/30 02:51:47;;;;;;;18.40;6.10;;;;;;;;;;4955941;29;20094;-66
2023/01/30 02:54:14;;;;;;;16.95;5.90;;;;;;;;;;4955035;29;20090;-66
2023/01/30 02:56:45;;;;;;;21.10;5.00;;;;;;;;;;4955735;29;20155;-66
2023/01/30 02:59:12;;;;;;;17.50;5.03;;;;;;;;;;4955567;29;20045;-66
2023/01/30 03:01:57;;;;;;;16.05;5.85;;;;;;;;;;4955432;29;20047;-66
2023/01/30 03:04:31;;;;;;;17.80;5.07;;;;;;;;;;4955338;29;20047;-66
2023/01/30 03:07:15;;;;;;;18.20;5.60;;;;;;;;;;4955416;29;20046;-66
2023/01/30 03:09:57;;;;;;;19.83;5.45;;;;;;;;;;4966219;28;20117;-66
2023/01/30 03:12:23;;;;;;;22.77;5.47;;;;;;;;;;4974736;28;20219;-66
2023/01/30 03:14:54;;;;;;;21.80;5.38;;;;;;;;;;4974365;28;20160;-66
2023/01/30 03:17:22;;;;;;;14.67;5.93;;;;;;;;;;4974403;28;20047;-66
2023/01/30 03:19:49;;;;;;;16.77;5.40;;;;;;;;;;4974058;28;20062;-66
2023/01/30 03:22:15;;;;;;;15.75;5.53;;;;;;;;;;4974816;28;20039;-66
2023/01/30 03:24:42;;;;;;;20.45;6.10;;;;;;;;;;4974022;28;20042;-66
2023/01/30 03:27:11;;;;;;;19.30;5.72;;;;;;;;;;4956262;28;20446;-66
2023/01/30 03:29:38;;;;;;;21.23;5.28;;;;;;;;;;4954389;28;20036;-66
2023/01/30 03:32:04;;;;;;;20.80;5.03;;;;;;;;;;4955030;29;20036;-66
2023/01/30 03:34:30;;;;;;;16.67;5.47;;;;;;;;;;4954707;29;20047;-66
2023/01/30 03:36:56;;;;;;;22.38;5.07;;;;;;;;;;4955209;29;20039;-66
2023/01/30 03:39:23;;;;;;;13.30;4.10;;;;;;;;;;4953457;29;20048;-66
2023/01/30 03:41:49;;;;;;;24.83;5.55;;;;;;;;;;4955193;29;20035;-66
2023/01/30 03:44:15;;;;;;;20.30;4.60;;;;;;;;;;4954794;29;20043;-66
2023/01/30 03:46:41;;;;;;;24.65;4.85;;;;;;;;;;4954588;29;20035;-66
2023/01/30 03:49:07;;;;;;;31.30;5.60;;;;;;;;;;4954825;29;20039;-66
2023/01/30 03:51:33;;;;;;;15.85;4.10;;;;;;;;;;4954705;29;20106;-66
2023/01/30 03:53:59;;;;;;;17.80;4.20;;;;;;;;;;4954371;29;20055;-66
2023/01/30 03:56:25;;;;;;;21.25;4.53;;;;;;;;;;4954278;29;20086;-66
2023/01/30 03:58:51;;;;;;;18.90;4.28;;;;;;;;;;4954740;29;20063;-66
2023/01/30 04:01:18;;;;;;;21.75;5.32;;;;;;;;;;4954092;29;20043;-66
2023/01/30 04:03:44;;;;;;;21.48;4.63;;;;;;;;;;4954582;29;20042;-66
2023/01/30 04:06:11;;;;;;;15.88;4.13;;;;;;;;;;4954455;29;20074;-66
2023/01/30 04:08:37;;;;;;;21.35;4.88;;;;;;;;;;4956813;28;20410;-66
2023/01/30 04:11:03;;;;;;;19.00;4.97;;;;;;;;;;4973693;28;20050;-66
2023/01/30 04:13:29;;;;;;;22.13;4.50;;;;;;;;;;4973462;28;20611;-66
2023/01/30 04:16:13;;;;;;;17.98;4.40;;;;;;;;;;4972857;28;20133;-66
2023/01/30 04:18:39;;;;;;;18.05;4.78;;;;;;;;;;4973769;28;20038;-66
2023/01/30 04:21:05;;;;;;;13.93;3.85;;;;;;;;;;4973142;28;20051;-66
2023/01/30 04:23:31;;;;;;;22.50;4.13;;;;;;;;;;4972775;28;20070;-66
2023/01/30 04:25:57;;;;;;;15.98;4.72;;;;;;;;;;4964545;28;20040;-66
2023/01/30 04:28:23;;;;;;;26.98;4.32;;;;;;;;;;4954233;29;20050;-66
2023/01/30 04:30:49;;;;;;;30.35;5.05;;;;;;;;;;4953715;29;20093;-66
2023/01/30 04:33:15;;;;;;;19.25;4.30;;;;;;;;;;4953784;29;20047;-66
2023/01/30 04:35:50;;;;;;;22.30;5.20;;;;;;;;;;4953782;29;20047;-66
2023/01/30 04:38:16;;;;;;;24.98;4.63;;;;;;;;;;4953672;29;20398;-66
2023/01/30 04:40:47;;;;;;;20.83;4.70;;;;;;;;;;4952730;28;20035;-66
2023/01/30 04:43:13;;;;;;;23.13;4.80;;;;;;;;;;4953766;29;20580;-66
2023/01/30 04:45:42;;;;;;;26.73;4.43;;;;;;;;;;4953362;29;20137;-66
2023/01/30 04:48:08;;;;;;;20.42;3.75;;;;;;;;;;4953768;29;20043;-66
2023/01/30 04:50:34;;;;;;;20.35;3.97;;;;;;;;;;4953566;29;20079;-66
2023/01/30 04:53:00;;;;;;;19.05;3.60;;;;;;;;;;4953270;29;20047;-66
2023/01/30 04:55:26;;;;;;;18.90;4.00;;;;;;;;;;4953521;29;20039;-66
2023/01/30 04:57:52;;;;;;;21.88;3.80;;;;;;;;;;4953594;29;20031;-66
2023/01/30 05:00:18;;;;;;;16.58;4.45;;;;;;;;;;4953277;29;20046;-66
2023/01/30 05:02:44;;;;;;;23.60;3.63;;;;;;;;;;4953443;29;20043;-66
2023/01/30 05:05:10;;;;;;;21.10;5.30;;;;;;;;;;4953497;29;20086;-66
2023/01/30 05:07:36;;;;;;;21.40;3.60;;;;;;;;;;4953059;29;20047;-66
2023/01/30 05:10:02;;;;;;;16.58;4.25;;;;;;;;;;4967365;28;20559;-66
2023/01/30 05:12:29;;;;;;;24.50;3.72;;;;;;;;;;4972458;28;20409;-66
2023/01/30 05:14:55;;;;;;;22.23;4.57;;;;;;;;;;4971853;28;20145;-66
2023/01/30 05:17:21;;;;;;;24.83;4.78;;;;;;;;;;4972351;28;20410;-66
2023/01/30 05:19:47;;;;;;;19.20;3.60;;;;;;;;;;4972313;28;20453;-66
2023/01/30 05:22:13;;;;;;;22.75;3.72;;;;;;;;;;4972112;28;20063;-66
2023/01/30 05:24:39;;;;;;;19.67;4.25;;;;;;;;;;4972250;28;20667;-66
2023/01/30 05:27:05;;;;;;;18.30;3.13;;;;;;;;;;4954233;28;20106;-66
2023/01/30 05:29:31;;;;;;;17.25;3.88;;;;;;;;;;4952586;29;20102;-66
2023/01/30 05:31:57;;;;;;;24.85;5.03;;;;;;;;;;4952925;29;20412;-66
2023/01/30 05:34:23;;;;;;;18.98;3.40;;;;;;;;;;4952670;29;20510;-66
2023/01/30 05:36:49;;;;;;;19.35;3.13;;;;;;;;;;4952436;29;20094;-66
2023/01/30 05:39:16;;;;;;;20.90;3.97;;;;;;;;;;4952570;29;20047;-66
2023/01/30 05:41:42;;;;;;;22.23;4.15;;;;;;;;;;4952607;29;20541;-66
2023/01/30 05:44:08;;;;;;;23.52;5.03;;;;;;;;;;4952257;29;20043;-66
2023/01/30 05:46:34;;;;;;;23.70;4.18;;;;;;;;;;4952781;29;20047;-66
2023/01/30 05:49:02;;;;;;;21.52;4.07;;;;;;;;;;4952651;29;20465;-66
2023/01/30 05:51:29;;;;;;;28.63;3.83;;;;;;;;;;4952342;28;20050;-66
2023/01/30 05:53:55;;;;;;;27.50;4.63;;;;;;;;;;4951985;29;20102;-66
2023/01/30 05:56:21;;;;;;;29.20;3.72;;;;;;;;;;4952593;29;20047;-66
2023/01/30 05:58:51;;;;;;;23.15;3.78;;;;;;;;;;4952275;29;20043;-66
2023/01/30 06:01:17;;;;;;;17.45;3.92;;;;;;;;;;4919270;29;20047;-66
2023/01/30 06:03:44;;;;;;;24.05;3.65;;;;;;;;;;4952473;29;20509;-66
2023/01/30 06:06:10;;;;;;;25.67;3.38;;;;;;;;;;4950954;28;20090;-64
2023/01/30 06:08:36;;;;;;;21.50;3.60;;;;;;;;;;4956757;28;20134;-64
2023/01/30 06:11:04;;;;;;;26.23;3.72;;;;;;;;;;4971390;28;20464;-64
2023/01/30 06:13:31;;;;;;;18.67;3.20;;;;;;;;;;4957542;28;20039;-64
2023/01/30 06:15:57;;;;;;;25.20;4.35;;;;;;;;;;4950183;28;20043;-64
2023/01/30 06:18:23;;;;;;;19.77;3.72;;;;;;;;;;4971306;28;20043;-64
2023/01/30 06:20:49;;;;;;;16.88;3.28;;;;;;;;;;4971086;28;20181;-65
2023/01/30 06:23:16;;;;;;;23.33;3.88;;;;;;;;;;4970902;28;20043;-65
2023/01/30 06:25:45;;;;;;;23.08;3.72;;;;;;;;;;4971323;28;20038;-65
2023/01/30 06:28:12;;;;;;;18.52;3.40;;;;;;;;;;4952392;28;20112;-65
2023/01/30 06:30:38;;;;;;;18.10;3.47;;;;;;;;;;4958687;28;20047;-65
2023/01/30 06:33:04;;;;;;;23.60;3.95;;;;;;;;;;4971203;28;20078;-65
2023/01/30 06:35:30;;;;;;;22.13;3.60;;;;;;;;;;4956789;28;20126;-65
2023/01/30 06:37:56;;;;;;;21.33;3.70;;;;;;;;;;4953265;28;20543;-65
2023/01/30 06:40:22;;;;;;;26.17;3.58;;;;;;;;;;4971182;28;20041;-65
2023/01/30 06:42:48;;;;;;;24.17;3.67;;;;;;;;;;4971236;28;20035;-65
2023/01/30 06:45:15;;;;;;;27.98;4.63;;;;;;;;;;4970500;28;20058;-65
2023/01/30 06:47:48;;;;;;;27.13;3.72;;;;;;;;;;4971082;28;20051;-65
2023/01/30 06:50:15;;;;;;;22.77;3.13;;;;;;;;;;4971026;28;20038;-65
2023/01/30 06:52:42;;;;;;;25.50;3.38;;;;;;;;;;4970807;28;20422;-65
2023/01/30 06:55:09;;;;;;;31.48;3.75;;;;;;;;;;4966704;28;20047;-65
2023/01/30 06:57:35;;;;;;;17.73;3.78;;;;;;;;;;4971152;28;20043;-65
2023/01/30 07:00:01;;;;;;;23.60;3.78;;;;;;;;;;4970658;28;20035;-65
2023/01/30 07:02:29;;;;;;;24.13;3.83;;;;;;;;;;4964044;28;20039;-66
2023/01/30 07:04:55;;;;;;;29.25;3.55;;;;;;;;;;4953691;28;20050;-65
2023/01/30 07:07:21;;;;;;;20.00;3.45;;;;;;;;;;4965165;28;20109;-65
2023/01/30 07:09:47;;;;;;;25.20;4.00;;;;;;;;;;4962602;28;20707;-65
2023/01/30 07:12:13;;;;;;;25.88;3.72;;;;;;;;;;4974028;28;20134;-65
2023/01/30 07:14:39;;;;;;;32.03;5.57;;;;;;;;;;4973952;28;20047;-65
2023/01/30 07:17:05;;;;;;;22.55;3.22;;;;;;;;;;4974310;28;20034;-65
2023/01/30 07:19:31;;;;;;;28.83;4.10;;;;;;;;;;4973857;28;20031;-65
2023/01/30 07:21:57;;;;;;;19.92;3.63;;;;;;;;;;4973751;28;20118;-65
2023/01/30 07:24:23;;;;;;;24.40;3.55;;;;;;;;;;4955129;28;20398;-65
2023/01/30 07:26:49;;;;;;;24.13;3.60;;;;;;;;;;4970251;28;20062;-65
2023/01/30 07:29:15;;;;;;;27.70;4.15;;;;;;;;;;4973871;28;20110;-65
2023/01/30 07:31:41;;;;;;;29.70;4.72;;;;;;;;;;4973807;28;20636;-64
2023/01/30 07:34:07;;;;;;;25.10;3.50;;;;;;;;;;4968737;28;20133;-67
2023/01/30 07:36:33;;;;;;;20.35;3.67;;;;;;;;;;4952772;28;20051;-67
2023/01/30 07:39:00;;;;;;;24.58;3.63;;;;;;;;;;4928571;28;20043;-67
2023/01/30 07:41:26;;;;;;;22.77;4.20;;;;;;;;;;4940335;28;20440;-66
2023/01/30 07:43:53;;;;;;;27.70;4.53;;;;;;;;;;4960804;28;20051;-67
2023/01/30 07:46:19;;;;;;;30.50;3.75;;;;;;;;;;4948737;28;20043;-67
2023/01/30 07:48:45;;;;;;;24.83;3.55;;;;;;;;;;4952229;29;20054;-66
2023/01/30 07:51:11;;;;;;;21.48;3.13;;;;;;;;;;4960019;28;20069;-68
2023/01/30 07:53:37;;;;;;;21.77;3.08;;;;;;;;;;4935312;29;20062;-66
2023/01/30 07:56:13;;;;;;;22.67;3.53;;;;;;;;;;4960418;28;20047;-66
2023/01/30 07:58:39;;;;;;;21.88;3.20;;;;;;;;;;4955328;28;20062;-65
2023/01/30 08:01:05;;;;;;;32.00;5.18;;;;;;;;;;4956331;28;20045;-66
2023/01/30 08:03:31;;;;;;;25.00;3.75;;;;;;;;;;4962315;28;20075;-66
2023/01/30 08:05:57;;;;;;;25.83;4.35;;;;;;;;;;4956005;28;20035;-66
2023/01/30 08:08:23;;;;;;;28.33;4.47;;;;;;;;;;4964685;28;20047;-66
2023/01/30 08:10:49;;;;;;;20.77;3.80;;;;;;;;;;4972640;28;20129;-66
2023/01/30 08:13:15;;;;;;;29.13;4.15;;;;;;;;;;4964930;28;20526;-65
2023/01/30 08:15:41;;;;;;;23.90;4.13;;;;;;;;;;4943302;28;20058;-66
2023/01/30 08:18:07;;;;;;;29.02;4.60;;;;;;;;;;4972923;28;20383;-66
2023/01/30 08:20:33;;;;;;;32.40;4.05;;;;;;;;;;4960005;28;20312;-65
2023/01/30 08:23:01;;;;;;;23.52;3.85;;;;;;;;;;4957814;28;20043;-65
2023/01/30 08:25:27;;;;;;;23.30;4.05;;;;;;;;;;4957517;28;20117;-66
2023/01/30 08:27:53;;;;;;;26.77;4.63;;;;;;;;;;4948827;28;20125;-66
2023/01/30 08:30:20;;;;;;;24.05;4.38;;;;;;;;;;4968473;28;20049;-64
2023/01/30 08:32:46;;;;;;;23.58;4.18;;;;;;;;;;4958766;28;20438;-63
2023/01/30 08:35:12;;;;;;;25.77;4.65;;;;;;;;;;4951710;28;20466;-68
2023/01/30 08:37:39;;;;;;;29.60;4.25;;;;;;;;;;4942654;28;20145;-66
2023/01/30 08:40:05;;;;;;;28.42;3.88;;;;;;;;;;4942655;28;20078;-69
2023/01/30 08:42:31;;;;;;;24.45;4.20;;;;;;;;;;4951156;28;20533;-68
2023/01/30 08:44:57;;;;;;;21.88;3.95;;;;;;;;;;4939767;29;20057;-66
2023/01/30 08:47:23;;;;;;;23.52;4.03;;;;;;;;;;4963167;28;20053;-65
2023/01/30 08:49:51;;;;;;;27.58;4.13;;;;;;;;;;4960567;28;20050;-69
2023/01/30 08:52:17;;;;;;;23.88;3.83;;;;;;;;;;4941274;28;20405;-66
2023/01/30 08:54:43;;;;;;;26.98;3.83;;;;;;;;;;4969884;28;20050;-69
2023/01/30 08:57:09;;;;;;;20.48;4.18;;;;;;;;;;4931702;28;20131;-66
2023/01/30 08:59:35;;;;;;;39.67;4.80;;;;;;;;;;4945050;28;20051;-66
2023/01/30 09:02:01;;;;;;;27.25;4.60;;;;;;;;;;4958608;28;20374;-66
2023/01/30 09:04:31;;;;;;;26.10;3.38;;;;;;;;;;4961101;28;20390;-66
2023/01/30 09:06:57;;;;;;;26.52;3.67;;;;;;;;;;4968076;28;20070;-67
2023/01/30 09:09:23;;;;;;;28.10;3.83;;;;;;;;;;4962892;28;20265;-67
2023/01/30 09:11:49;;;;;;;21.55;4.25;;;;;;;;;;4962600;28;20061;-68
2023/01/30 09:14:18;;;;;;;22.75;4.75;;;;;;;;;;4967794;28;20031;-70
2023/01/30 09:16:48;;;;;;;17.73;3.53;;;;;;;;;;4940582;28;20073;-66
2023/01/30 09:19:14;;;;;;;24.70;3.90;;;;;;;;;;4932018;28;20134;-66
2023/01/30 09:21:40;;;;;;;31.75;4.22;;;;;;;;;;4967089;28;20059;-68
2023/01/30 09:24:06;;;;;;;24.25;3.25;;;;;;;;;;4949029;28;20101;-70
2023/01/30 09:26:32;;;;;;;28.90;4.03;;;;;;;;;;4948871;28;20537;-67
2023/01/30 09:28:58;;;;;;;25.52;4.32;;;;;;;;;;4960196;28;20089;-69
2023/01/30 09:31:24;;;;;;;27.60;3.80;;;;;;;;;;4963910;28;20043;-69
2023/01/30 09:33:51;;;;;;;28.10;3.88;;;;;;;;;;4944139;28;20093;-68
2023/01/30 09:36:17;;;;;;;33.63;4.75;;;;;;;;;;4950736;28;20673;-67
2023/01/30 09:38:43;;;;;;;32.67;4.28;;;;;;;;;;4936737;28;20779;-65
2023/01/30 09:41:09;;;;;;;22.42;3.70;;;;;;;;;;4956710;28;20039;-67
2023/01/30 09:43:53;;;;;;;22.65;4.15;;;;;;;;;;4950879;28;20043;-68
2023/01/30 09:46:38;;;;;;;28.08;4.28;;;;;;;;;;4953479;28;20042;-68
2023/01/30 09:49:04;;;;;;;26.67;4.03;;;;;;;;;;4961429;28;20043;-67
2023/01/30 09:51:43;;;;;;;22.58;4.07;;;;;;;;;;4960017;28;20134;-67
2023/01/30 09:54:19;;;;;;;31.08;4.50;;;;;;;;;;4954354;28;20097;-66
2023/01/30 09:56:45;;;;;;;30.55;4.15;;;;;;;;;;4950118;28;20062;-68
2023/01/30 09:59:18;;;;;;;27.60;4.28;;;;;;;;;;4938309;28;20058;-69
2023/01/30 10:02:03;;;;;;;30.02;4.75;;;;;;;;;;4966768;28;20038;-68
2023/01/30 10:04:37;;;;;;;21.25;4.03;;;;;;;;;;4940575;28;20085;-68
2023/01/30 10:07:03;;;;;;;34.10;5.95;;;;;;;;;;4955810;28;20050;-67
2023/01/30 10:09:29;;;;;;;24.23;4.88;;;;;;;;;;4959214;28;20557;-68
2023/01/30 10:11:55;;;;;;;22.27;4.07;;;;;;;;;;4945577;28;20485;-69
2023/01/30 10:14:40;;;;;;;20.10;3.58;;;;;;;;;;4942674;28;20126;-67
2023/01/30 10:17:06;;;;;;;27.92;3.85;;;;;;;;;;4967695;28;20122;-68
2023/01/30 10:19:41;;;;;;;29.73;4.88;;;;;;;;;;4943365;28;20055;-66
2023/01/30 10:22:26;;;;;;;25.92;3.97;;;;;;;;;;4955895;28;20058;-67
2023/01/30 10:24:55;;;;;;;33.72;3.85;;;;;;;;;;4963182;28;20077;-68
2023/01/30 10:27:21;;;;;;;35.47;4.70;;;;;;;;;;4966923;28;20100;-67
2023/01/30 10:29:49;;;;;;;23.00;4.65;;;;;;;;;;4944941;28;20055;-66
2023/01/30 10:32:18;;;;;;;29.85;4.88;;;;;;;;;;4939398;28;20096;-67
2023/01/30 10:34:48;;;;;;;26.20;4.40;;;;;;;;;;4967495;28;20047;-69
2023/01/30 10:37:26;;;;;;;25.30;4.10;;;;;;;;;;4945438;28;20125;-69
2023/01/30 10:39:54;;;;;;;29.75;4.30;;;;;;;;;;4936305;28;20033;-70
2023/01/30 10:42:26;;;;;;;28.42;4.18;;;;;;;;;;4951974;28;20081;-69
2023/01/30 10:44:53;;;;;;;28.45;4.47;;;;;;;;;;4951919;28;20070;-70
2023/01/30 10:47:19;;;;;;;30.15;4.63;;;;;;;;;;4951849;28;20047;-69
2023/01/30 10:49:48;;;;;;;23.42;4.38;;;;;;;;;;4953468;28;20058;-67
2023/01/30 10:52:17;;;;;;;29.40;4.10;;;;;;;;;;4972393;28;20082;-67
2023/01/30 10:54:59;;;;;;;26.38;4.03;;;;;;;;;;4936827;29;20054;-67
2023/01/30 10:57:46;;;;;;;22.60;3.83;;;;;;;;;;4966103;28;20083;-67
2023/01/30 11:00:16;;;;;;;30.45;4.20;;;;;;;;;;4956882;28;20122;-66
2023/01/30 11:03:01;;;;;;;22.40;4.50;;;;;;;;;;4972257;28;20163;-65
2023/01/30 11:05:39;;;;;;;25.02;4.47;;;;;;;;;;4961408;28;20043;-66
2023/01/30 11:08:21;;;;;;;32.97;4.50;;;;;;;;;;4960361;28;20042;-67
2023/01/30 11:10:47;;;;;;;19.50;4.22;;;;;;;;;;4964534;28;20443;-67
2023/01/30 11:13:13;;;;;;;23.50;4.28;;;;;;;;;;4943478;29;20043;-69
2023/01/30 11:15:44;;;;;;;29.52;4.22;;;;;;;;;;4958182;28;20121;-70
2023/01/30 11:18:11;;;;;;;34.50;5.70;;;;;;;;;;4940855;28;20050;-69
2023/01/30 11:20:42;;;;;;;32.03;5.28;;;;;;;;;;4962726;28;20118;-68
2023/01/30 11:23:21;;;;;;;26.73;4.15;;;;;;;;;;4968062;28;20480;-68
2023/01/30 11:25:48;;;;;;;25.92;4.18;;;;;;;;;;4963382;28;20057;-66
2023/01/30 11:28:16;;;;;;;22.48;3.75;;;;;;;;;;4969605;28;20053;-67
2023/01/30 11:30:42;;;;;;;17.92;3.42;;;;;;;;;;4969937;28;20074;-67
2023/01/30 11:33:12;;;;;;;20.98;3.10;;;;;;;;;;4965352;28;20406;-66
2023/01/30 11:35:59;;;;;;;15.00;2.80;;;;;;;;;;4967335;28;20405;-66
2023/01/30 11:38:26;;;;;;;16.88;3.20;;;;;;;;;;4965864;28;20166;-66
2023/01/30 11:41:01;;;;;;;19.13;2.65;;;;;;;;;;4962706;28;20440;-67
2023/01/30 11:43:28;;;;;;;27.77;5.30;;;;;;;;;;4968374;28;20066;-67
2023/01/30 11:45:54;;;;;;;24.40;4.35;;;;;;;;;;4969147;28;20486;-67
2023/01/30 11:48:26;;;;;;;22.27;4.07;;;;;;;;;;4941777;28;20046;-67
2023/01/30 11:51:01;;;;;;;20.70;3.88;;;;;;;;;;4969994;28;20043;-67
2023/01/30 11:53:45;;;;;;;22.98;4.07;;;;;;;;;;4951845;28;20039;-69
2023/01/30 11:56:21;;;;;;;21.30;3.80;;;;;;;;;;4952473;28;20048;-67
2023/01/30 11:58:56;;;;;;;24.77;3.50;;;;;;;;;;4955029;28;20043;-69
2023/01/30 12:01:25;;;;;;;23.17;3.30;;;;;;;;;;4945635;28;20050;-66
2023/01/30 12:03:53;;;;;;;12.98;2.67;;;;;;;;;;4970663;28;20122;-66
2023/01/30 12:06:23;;;;;;;11.10;2.20;;;;;;;;;;4955306;28;20051;-66
2023/01/30 12:08:53;;;;;;;13.80;1.75;;;;;;;;;;4970820;28;20089;-66
2023/01/30 12:11:30;;;;;;;11.50;1.67;;;;;;;;;;4973147;28;20043;-66
2023/01/30 12:14:14;;;;;;;11.82;2.30;;;;;;;;;;4963822;28;20449;-66
2023/01/30 12:16:48;;;;;;;9.50;1.83;;;;;;;;;;4967133;28;20118;-66
2023/01/30 12:19:23;;;;;;;8.43;2.05;;;;;;;;;;4970687;28;20046;-66
2023/01/30 12:21:58;;;;;;;7.93;1.60;;;;;;;;;;4964324;28;20051;-66
2023/01/30 12:24:31;;;;;;;6.55;1.48;;;;;;;;;;4963639;28;20477;-66
2023/01/30 12:26:57;;;;;;;;;;;;;;;;;;4956647;28;20054;-66
2023/01/30 12:29:29;;;;;;;13.02;1.92;;;;;;;;;;4968413;28;19922;-68
2023/01/30 12:32:04;;;;;;;16.45;2.95;;;;;;;;;;4962396;28;20039;-68
2023/01/30 12:34:30;;;;;;;18.40;2.50;;;;;;;;;;4941664;28;20053;-66
2023/01/30 12:36:56;;;;;;;19.08;3.28;;;;;;;;;;4947165;28;20043;-67
2023/01/30 12:39:37;;;;;;;15.00;2.78;;;;;;;;;;4968696;28;20806;-66
2023/01/30 12:42:22;;;;;;;24.25;4.18;;;;;;;;;;4960482;28;20041;-67
2023/01/30 12:44:51;;;;;;;18.75;3.17;;;;;;;;;;4962316;28;20047;-67
2023/01/30 12:47:17;;;;;;;15.98;2.70;;;;;;;;;;4963605;28;20042;-66
2023/01/30 12:50:02;;;;;;;15.75;3.88;;;;;;;;;;4956605;28;20036;-67
2023/01/30 12:52:28;;;;;;;16.27;2.38;;;;;;;;;;4968499;28;20097;-68
2023/01/30 12:55:14;;;;;;;21.02;3.40;;;;;;;;;;4964565;28;20074;-67
2023/01/30 12:57:46;;;;;;;21.75;3.20;;;;;;;;;;4969230;28;20042;-70
2023/01/30 13:00:15;;;;;;;15.27;2.78;;;;;;;;;;4953979;28;20035;-69
2023/01/30 13:03:00;;;;;;;12.63;2.10;;;;;;;;;;4940321;28;20035;-66
2023/01/30 13:05:34;;;;;;;17.42;3.63;;;;;;;;;;4966537;28;20078;-67
2023/01/30 13:08:00;;;;;;;15.02;2.63;;;;;;;;;;4968067;28;20074;-69
2023/01/30 13:10:30;;;;;;;20.52;2.83;;;;;;;;;;4946169;28;20058;-69
2023/01/30 13:13:02;;;;;;;16.83;3.10;;;;;;;;;;4967699;28;20564;-70
2023/01/30 13:15:33;;;;;;;17.63;2.58;;;;;;;;;;4955420;28;20053;-66
2023/01/30 13:17:59;;;;;;;16.48;2.78;;;;;;;;;;4968474;28;20749;-66
2023/01/30 13:20:37;;;;;;;17.27;2.38;;;;;;;;;;4969032;28;20417;-64
2023/01/30 13:23:09;;;;;;;15.02;2.42;;;;;;;;;;4971257;28;20047;-65
2023/01/30 13:25:45;;;;;;;17.48;3.08;;;;;;;;;;4944502;28;20039;-67
2023/01/30 13:28:13;;;;;;;16.65;2.63;;;;;;;;;;4966922;28;20047;-68
2023/01/30 13:30:41;;;;;;;16.33;2.92;;;;;;;;;;4962045;28;20526;-67
2023/01/30 13:33:15;;;;;;;15.70;3.05;;;;;;;;;;4944447;28;20106;-67
2023/01/30 13:36:01;;;;;;;19.08;3.03;;;;;;;;;;4970794;28;20047;-67
2023/01/30 13:38:28;;;;;;;23.65;3.35;;;;;;;;;;4948865;28;20049;-68
2023/01/30 13:40:56;;;;;;;21.65;3.35;;;;;;;;;;4947551;28;20039;-65
2023/01/30 13:43:25;;;;;;;19.98;3.28;;;;;;;;;;4970622;28;20038;-67
2023/01/30 13:45:53;;;;;;;24.52;3.78;;;;;;;;;;4951669;28;20045;-66
2023/01/30 13:48:19;;;;;;;25.85;3.50;;;;;;;;;;4961482;28;20043;-67
2023/01/30 13:50:49;;;;;;;21.90;3.75;;;;;;;;;;4968607;28;20050;-66
2023/01/30 13:53:22;;;;;;;31.73;4.10;;;;;;;;;;4968108;28;20046;-66
2023/01/30 13:55:55;;;;;;;23.27;4.03;;;;;;;;;;4963901;28;20039;-66
2023/01/30 13:58:42;;;;;;;24.35;4.32;;;;;;;;;;4969261;28;20050;-68
2023/01/30 14:01:09;;;;;;;24.92;4.20;;;;;;;;;;4951441;28;20039;-69
2023/01/30 14:03:36;;;;;;;28.50;4.47;;;;;;;;;;4965595;28;20039;-66
2023/01/30 14:06:02;;;;;;;29.02;5.10;;;;;;;;;;4966512;28;20121;-67
2023/01/30 14:08:48;;;;;;;33.22;5.55;;;;;;;;;;4964622;28;20117;-68
2023/01/30 14:11:30;;;;;;;35.95;4.78;;;;;;;;;;4967048;28;20051;-68
2023/01/30 14:14:16;;;;;;;29.42;5.15;;;;;;;;;;4950453;28;20477;-65
2023/01/30 14:16:46;;;;;;;24.77;4.78;;;;;;;;;;4955909;28;20047;-63
2023/01/30 14:19:31;;;;;;;29.42;3.60;;;;;;;;;;4970258;28;20527;-63
2023/01/30 14:21:59;;;;;;;24.33;4.68;;;;;;;;;;4943902;29;20055;-64
2023/01/30 14:24:30;;;;;;;25.17;4.70;;;;;;;;;;4948040;29;20043;-65
2023/01/30 14:26:56;;;;;;;27.63;3.90;;;;;;;;;;4935940;29;20044;-67
2023/01/30 14:29:48;;;;;;;29.98;4.47;;;;;;;;;;4937691;29;20048;-65
2023/01/30 14:32:14;;;;;;;25.02;3.97;;;;;;;;;;4913974;29;20411;-65
2023/01/30 14:34:48;;;;;;;32.72;4.55;;;;;;;;;;4932215;29;20088;-65
2023/01/30 14:37:26;;;;;;;26.38;4.50;;;;;;;;;;4932700;29;20518;-65
2023/01/30 14:39:54;;;;;;;25.13;4.60;;;;;;;;;;4933099;29;20042;-64
2023/01/30 14:42:21;;;;;;;28.48;5.72;;;;;;;;;;4929893;29;20051;-65
2023/01/30 14:45:01;;;;;;;32.80;6.50;;;;;;;;;;4932692;29;20090;-65
2023/01/30 14:47:28;;;;;;;27.05;4.68;;;;;;;;;;4935197;29;20047;-66
2023/01/30 14:49:54;;;;;;;28.58;4.25;;;;;;;;;;4928598;29;20043;-65